LEGR/GRX METAR and TAF weather

Enter ICAO airport designator
Station Type Date Time Source
LEGR METAR 2018/12/11 17:30 UTC NOAA

LEGR 111730Z 25006KT CAVOK 11/08 Q1023


Station Type Date Time Source
LEGR Decoded METAR 2018/12/11 17:30 UTC NOAA

Granada / Aeropuerto, Spain (LEGR) 37-11N 003-47W 570M
Dec 11, 2018 - 12:30 PM EST / 2018.12.11 1730 UTC
Wind: from the WSW (250 degrees) at 7 MPH (6 KT):0
Visibility: greater than 7 mile(s):0
Temperature: 51 F (11 C)
Dew Point: 46 F (8 C)
Relative Humidity: 81%
Pressure (altimeter): 30.21 in. Hg (1023 hPa)
ob: LEGR 111730Z 25006KT CAVOK 11/08 Q1023
cycle: 17

Station Type Date Time Source
LEGR TAF 2018/12/11 15:31 UTC NOAA

TAF LEGR 111400Z 1115/1215 28004KT 9999 FEW040 TX19/1215Z TN01/1207Z PROB30
TEMPO 1202/1210 2000 BR BKN010


Example: see airport list